createdAt,value
2023-03-26T00:02:13.014Z,67.49
2023-03-26T00:04:42.977Z,67.38
2023-03-26T00:07:14.754Z,67.45
2023-03-26T00:09:45.669Z,67.35
2023-03-26T00:12:20.052Z,67.45
2023-03-26T00:14:52.776Z,67.69
2023-03-26T00:17:27.913Z,67.69
2023-03-26T00:20:01.676Z,67.46
2023-03-26T00:22:33.795Z,67.35
2023-03-26T00:25:06.785Z,67.30
2023-03-26T00:27:41.763Z,67.16
2023-03-26T00:30:13.709Z,67.05
2023-03-26T00:32:53.529Z,67.01
2023-03-26T00:35:26.739Z,66.84
2023-03-26T00:37:58.679Z,66.93
2023-03-26T00:40:32.737Z,66.76
2023-03-26T00:43:10.300Z,66.51
2023-03-26T00:45:42.082Z,66.25
2023-03-26T00:48:13.712Z,65.99
2023-03-26T00:50:47.705Z,65.70
2023-03-26T00:53:24.695Z,65.51
2023-03-26T00:56:00.463Z,65.24
2023-03-26T00:58:40.735Z,65.13
2023-03-26T01:01:16.830Z,65.02
2023-03-26T01:04:04.874Z,65.16
2023-03-26T01:06:44.133Z,65.39
2023-03-26T01:17:34.505Z,65.23
2023-03-26T01:20:32.075Z,65.30
2023-03-26T01:23:05.400Z,65.30
2023-03-26T01:25:41.521Z,65.29
2023-03-26T01:28:12.759Z,65.30
2023-03-26T01:30:52.536Z,65.40
2023-03-26T01:33:36.720Z,65.40
2023-03-26T01:36:17.074Z,65.54
2023-03-26T01:39:18.714Z,65.74
2023-03-26T01:41:56.080Z,65.89
2023-03-26T01:44:43.135Z,65.98
2023-03-26T01:47:13.525Z,66.04
2023-03-26T01:49:43.151Z,66.13
2023-03-26T01:52:33.044Z,66.21
2023-03-26T01:55:02.891Z,66.28
2023-03-26T01:57:44.180Z,66.37
2023-03-26T02:04:57.968Z,66.30
2023-03-26T02:07:29.219Z,66.20
2023-03-26T02:10:02.466Z,66.13
2023-03-26T02:12:31.427Z,66.14
2023-03-26T02:15:01.941Z,66.12
2023-03-26T02:17:32.727Z,66.15
2023-03-26T02:20:05.718Z,66.14
2023-03-26T02:22:40.989Z,66.20
2023-03-26T02:25:13.233Z,66.17
2023-03-26T02:27:41.964Z,66.20
2023-03-26T02:30:16.343Z,66.28
2023-03-26T02:32:45.941Z,66.34
2023-03-26T02:35:14.284Z,66.53
2023-03-26T02:37:46.957Z,66.65
2023-03-26T02:40:21.440Z,66.83
2023-03-26T02:42:51.091Z,66.96
2023-03-26T02:45:20.167Z,67.15
2023-03-26T02:48:17.063Z,66.96
2023-03-26T02:51:09.252Z,66.66
2023-03-26T02:53:48.482Z,66.74
2023-03-26T02:56:41.674Z,66.75
2023-03-26T02:59:18.079Z,66.70
2023-03-26T03:01:47.622Z,66.67
2023-03-26T03:04:18.110Z,66.77
2023-03-26T03:06:46.916Z,66.86
2023-03-26T03:09:15.442Z,66.79
2023-03-26T03:12:06.522Z,66.71
2023-03-26T03:14:36.660Z,66.59
2023-03-26T03:17:05.018Z,66.63
2023-03-26T03:19:34.174Z,66.75
2023-03-26T03:22:02.255Z,66.93
2023-03-26T03:24:34.177Z,67.02
2023-03-26T03:27:02.422Z,67.20
2023-03-26T03:29:41.562Z,67.28
2023-03-26T03:32:28.178Z,67.38
2023-03-26T03:35:00.843Z,67.46
2023-03-26T03:37:29.582Z,67.62
2023-03-26T03:40:20.758Z,67.81
2023-03-26T03:43:15.473Z,68.00
2023-03-26T03:46:02.927Z,68.12
2023-03-26T03:48:41.425Z,68.25
2023-03-26T03:51:10.697Z,68.45
2023-03-26T03:53:49.749Z,68.58
2023-03-26T03:56:27.601Z,68.47
2023-03-26T03:59:14.517Z,68.48
2023-03-26T04:01:43.821Z,68.45
2023-03-26T04:04:18.400Z,68.40
2023-03-26T04:06:57.518Z,68.62
2023-03-26T04:09:26.515Z,68.52
2023-03-26T04:11:56.718Z,68.68
2023-03-26T04:14:38.089Z,68.62
2023-03-26T04:17:15.988Z,68.56
2023-03-26T04:19:45.388Z,68.65
2023-03-26T04:22:14.937Z,68.74
2023-03-26T04:24:56.147Z,68.88
2023-03-26T04:27:32.262Z,69.07
2023-03-26T04:30:20.736Z,69.29
2023-03-26T04:33:15.493Z,69.46
2023-03-26T04:35:45.567Z,69.62
2023-03-26T04:38:18.465Z,69.70
2023-03-26T04:40:49.144Z,69.94
2023-03-26T04:43:35.823Z,70.05
2023-03-26T04:46:35.878Z,70.22
2023-03-26T04:49:13.678Z,70.31
2023-03-26T04:52:15.403Z,70.59
2023-03-26T04:55:09.278Z,71.33
2023-03-26T04:57:47.365Z,71.07
2023-03-26T05:00:30.264Z,71.97
2023-03-26T05:03:01.783Z,71.84
2023-03-26T05:05:31.955Z,72.03
2023-03-26T05:08:08.295Z,72.07
2023-03-26T05:10:44.255Z,71.84
2023-03-26T05:13:23.660Z,71.72
2023-03-26T05:15:56.949Z,71.65
2023-03-26T05:18:38.002Z,71.64
2023-03-26T05:21:13.372Z,71.77
2023-03-26T05:23:43.539Z,71.77
2023-03-26T05:26:21.638Z,71.65
2023-03-26T05:28:52.939Z,71.56
2023-03-26T05:31:39.744Z,71.48
2023-03-26T05:34:31.852Z,71.28
2023-03-26T05:37:05.098Z,71.09
2023-03-26T05:39:54.291Z,71.11
2023-03-26T05:42:48.312Z,70.98
2023-03-26T05:45:41.543Z,70.90
2023-03-26T05:48:23.960Z,70.70
2023-03-26T05:50:57.964Z,70.50
2023-03-26T05:53:49.073Z,70.23
2023-03-26T05:56:50.747Z,70.09
2023-03-26T05:59:52.333Z,69.90
2023-03-26T06:02:42.985Z,69.60
2023-03-26T06:05:41.327Z,69.38
2023-03-26T06:08:14.189Z,69.04
2023-03-26T06:11:05.788Z,68.73
2023-03-26T06:13:37.232Z,68.55
2023-03-26T06:16:08.644Z,68.40
2023-03-26T06:18:41.197Z,68.05
2023-03-26T06:21:29.038Z,67.56
2023-03-26T06:24:21.073Z,67.30
2023-03-26T06:27:09.799Z,66.81
2023-03-26T06:30:10.685Z,66.55
2023-03-26T06:33:10.297Z,64.77
2023-03-26T06:35:53.889Z,64.12
2023-03-26T06:38:28.533Z,64.27
2023-03-26T06:41:46.206Z,64.40
2023-03-26T06:45:37.612Z,63.98
2023-03-26T06:49:23.212Z,62.91
2023-03-26T06:56:34.736Z,60.59
2023-03-26T07:00:46.374Z,60.61
2023-03-26T07:04:44.108Z,59.30
2023-03-26T07:09:32.514Z,59.75
2023-03-26T07:13:33.377Z,58.74
2023-03-26T07:17:45.551Z,57.96
2023-03-26T07:21:35.045Z,57.97
2023-03-26T07:25:23.367Z,57.82
2023-03-26T07:29:03.776Z,56.55
2023-03-26T07:32:07.423Z,56.24
2023-03-26T07:35:07.354Z,56.18
2023-03-26T07:38:18.168Z,56.21
2023-03-26T07:41:54.726Z,55.81
2023-03-26T07:45:08.940Z,55.54
2023-03-26T07:48:56.896Z,55.42
2023-03-26T07:52:11.009Z,55.91
2023-03-26T07:55:27.957Z,55.71
2023-03-26T07:58:41.708Z,55.04
2023-03-26T08:01:38.611Z,53.45
2023-03-26T08:04:35.101Z,54.05
2023-03-26T08:07:54.738Z,54.12
2023-03-26T08:11:05.061Z,52.93
2023-03-26T08:14:14.558Z,52.66
2023-03-26T08:17:01.722Z,52.18
2023-03-26T08:19:39.924Z,52.68
2023-03-26T08:22:31.287Z,52.66
2023-03-26T08:25:17.807Z,51.98
2023-03-26T08:28:38.616Z,50.46
2023-03-26T08:31:11.977Z,50.41
2023-03-26T08:33:41.003Z,50.94
2023-03-26T08:36:10.242Z,50.23
2023-03-26T08:38:38.376Z,50.19
2023-03-26T08:41:12.605Z,50.15
2023-03-26T08:44:18.487Z,50.35
2023-03-26T08:47:08.010Z,49.41
2023-03-26T08:50:04.421Z,49.19
2023-03-26T08:52:42.390Z,48.37
2023-03-26T08:55:13.700Z,48.11
2023-03-26T08:58:09.936Z,48.31
2023-03-26T09:00:47.184Z,48.18
2023-03-26T09:03:35.911Z,47.41
2023-03-26T09:06:13.199Z,46.87
2023-03-26T09:09:18.943Z,46.04
2023-03-26T09:11:56.784Z,46.00
2023-03-26T09:14:59.162Z,45.03
2023-03-26T09:17:46.568Z,44.90
2023-03-26T09:21:08.349Z,43.62
2023-03-26T09:24:04.332Z,42.38
2023-03-26T09:27:11.942Z,42.15
2023-03-26T09:29:57.524Z,41.30
2023-03-26T09:32:47.552Z,42.11
2023-03-26T09:35:18.961Z,40.56
2023-03-26T09:38:12.322Z,40.31
2023-03-26T09:41:20.720Z,40.50
2023-03-26T09:44:25.952Z,40.67
2023-03-26T09:46:53.934Z,40.50
2023-03-26T09:49:33.078Z,39.54
2023-03-26T09:52:19.066Z,39.51
2023-03-26T09:55:09.181Z,39.63
2023-03-26T09:57:54.428Z,39.27
2023-03-26T10:00:34.607Z,39.43
2023-03-26T10:03:28.607Z,39.88
2023-03-26T10:06:14.047Z,40.32
2023-03-26T10:09:00.621Z,39.38
2023-03-26T10:11:58.470Z,39.53
2023-03-26T10:14:44.359Z,39.58
2023-03-26T10:17:15.651Z,38.51
2023-03-26T10:19:43.643Z,37.97
2023-03-26T10:22:23.654Z,36.60
2023-03-26T10:25:20.077Z,37.04
2023-03-26T10:28:20.355Z,37.42
2023-03-26T10:31:22.539Z,37.38
2023-03-26T10:34:02.934Z,37.02
2023-03-26T10:36:58.381Z,36.70
2023-03-26T10:39:57.627Z,37.00
2023-03-26T10:42:37.860Z,36.76
2023-03-26T10:45:24.052Z,37.11
2023-03-26T10:48:14.089Z,36.14
2023-03-26T10:50:41.962Z,35.75
2023-03-26T10:53:39.215Z,34.82
2023-03-26T10:56:23.651Z,34.87
2023-03-26T10:58:52.567Z,33.61
2023-03-26T11:01:51.563Z,32.47
2023-03-26T11:04:49.930Z,32.38
2023-03-26T11:08:04.266Z,32.83
2023-03-26T11:11:12.551Z,32.70
2023-03-26T11:13:54.006Z,31.24
2023-03-26T11:16:49.214Z,31.21
2023-03-26T11:20:05.926Z,31.82
2023-03-26T11:24:04.695Z,31.52
2023-03-26T11:28:14.002Z,31.43
2023-03-26T11:31:25.873Z,31.51
2023-03-26T11:34:03.173Z,31.33
2023-03-26T11:36:36.426Z,31.11
2023-03-26T11:39:29.569Z,31.14
2023-03-26T11:42:24.834Z,30.65
2023-03-26T11:45:01.016Z,29.98
2023-03-26T11:47:54.210Z,30.23
2023-03-26T11:50:27.775Z,30.06
2023-03-26T11:53:17.974Z,29.80
2023-03-26T11:56:01.340Z,29.86
2023-03-26T11:58:48.103Z,29.57
2023-03-26T12:01:22.795Z,29.87
2023-03-26T12:04:13.318Z,30.07
2023-03-26T12:07:05.125Z,30.86
2023-03-26T12:09:33.268Z,30.89
2023-03-26T12:12:04.401Z,31.10
2023-03-26T12:14:35.545Z,31.30
2023-03-26T12:17:08.721Z,31.87
2023-03-26T12:19:46.065Z,31.82
2023-03-26T12:22:47.886Z,31.18
2023-03-26T12:25:28.038Z,30.91
2023-03-26T12:28:03.050Z,31.29
2023-03-26T12:30:56.085Z,31.08
2023-03-26T12:33:34.344Z,31.03
2023-03-26T12:36:29.194Z,30.71
2023-03-26T12:39:16.293Z,30.27
2023-03-26T12:43:51.506Z,30.49
2023-03-26T12:44:58.848Z,30.50
2023-03-26T12:47:57.413Z,30.27
2023-03-26T12:50:34.656Z,30.77
2023-03-26T12:53:14.938Z,30.48
2023-03-26T12:55:51.219Z,30.32
2023-03-26T12:58:55.449Z,30.28
2023-03-26T13:01:33.397Z,30.45
2023-03-26T13:04:08.715Z,30.62
2023-03-26T13:07:00.810Z,31.01
2023-03-26T13:09:37.600Z,31.41
2023-03-26T13:12:25.757Z,31.50
2023-03-26T13:15:12.468Z,31.11
2023-03-26T13:17:48.668Z,30.53
2023-03-26T13:20:30.505Z,30.77
2023-03-26T13:23:32.179Z,30.19
2023-03-26T13:26:18.262Z,30.60
2023-03-26T13:29:07.316Z,31.09
2023-03-26T13:31:50.048Z,31.27
2023-03-26T13:35:04.307Z,30.83
2023-03-26T13:37:53.918Z,30.55
2023-03-26T13:40:50.126Z,29.89
2023-03-26T13:43:30.757Z,30.27
2023-03-26T13:46:20.151Z,30.57
2023-03-26T13:48:53.428Z,30.98
2023-03-26T13:51:29.814Z,31.05
2023-03-26T13:54:16.411Z,31.60
2023-03-26T13:56:49.574Z,31.84
2023-03-26T13:59:29.170Z,31.66
2023-03-26T14:02:20.204Z,31.54
2023-03-26T14:04:56.667Z,31.87
2023-03-26T14:07:34.893Z,32.01
2023-03-26T14:10:28.934Z,32.41
2023-03-26T14:13:00.400Z,32.17
2023-03-26T14:15:44.389Z,32.36
2023-03-26T14:18:44.372Z,32.51
2023-03-26T14:21:49.667Z,32.31
2023-03-26T14:24:46.737Z,32.55
2023-03-26T14:27:23.996Z,32.27
2023-03-26T14:30:23.719Z,32.26
2023-03-26T14:33:27.038Z,32.13
2023-03-26T14:36:31.472Z,32.19
2023-03-26T14:39:35.710Z,32.57
2023-03-26T14:42:32.066Z,32.89
2023-03-26T14:45:24.658Z,33.03
2023-03-26T14:48:14.177Z,32.66
2023-03-26T14:50:48.281Z,33.01
2023-03-26T14:53:30.381Z,33.68
2023-03-26T14:56:01.552Z,34.38
2023-03-26T14:58:38.838Z,34.76
2023-03-26T15:01:23.805Z,35.15
2023-03-26T15:04:28.416Z,35.45
2023-03-26T15:07:36.773Z,35.65
2023-03-26T15:10:43.420Z,35.54
2023-03-26T15:13:30.314Z,35.29
2023-03-26T15:16:17.720Z,35.59
2023-03-26T15:19:13.349Z,36.36
2023-03-26T15:22:36.454Z,37.27
2023-03-26T15:25:32.447Z,38.88
2023-03-26T15:28:22.401Z,40.08
2023-03-26T15:31:14.154Z,40.39
2023-03-26T15:34:24.746Z,40.75
2023-03-26T15:37:15.399Z,41.32
2023-03-26T15:40:28.341Z,41.32
2023-03-26T15:43:16.858Z,41.01
2023-03-26T15:45:46.171Z,40.47
2023-03-26T15:48:42.412Z,40.26
2023-03-26T15:51:46.494Z,40.35
2023-03-26T15:54:30.510Z,40.24
2023-03-26T15:57:17.510Z,40.35
2023-03-26T15:59:48.669Z,40.42
2023-03-26T16:02:41.640Z,40.59
2023-03-26T16:05:41.977Z,40.95
2023-03-26T16:08:47.247Z,41.35
2023-03-26T16:11:15.599Z,41.93
2023-03-26T16:13:50.750Z,42.29
2023-03-26T16:16:45.614Z,42.58
2023-03-26T16:19:17.018Z,42.72
2023-03-26T16:21:56.154Z,43.10
2023-03-26T16:24:28.931Z,43.21
2023-03-26T16:27:15.267Z,43.60
2023-03-26T16:30:01.644Z,43.89
2023-03-26T16:32:32.598Z,44.20
2023-03-26T16:35:34.876Z,44.76
2023-03-26T16:38:19.252Z,44.90
2023-03-26T16:41:22.121Z,45.13
2023-03-26T16:44:11.759Z,45.08
2023-03-26T16:46:59.580Z,45.14
2023-03-26T16:50:15.510Z,45.39
2023-03-26T16:52:55.016Z,45.88
2023-03-26T16:55:52.916Z,46.36
2023-03-26T16:58:30.083Z,46.53
2023-03-26T17:01:27.286Z,46.71
2023-03-26T17:04:09.867Z,46.96
2023-03-26T17:06:56.825Z,47.70
2023-03-26T17:09:35.396Z,48.02
2023-03-26T17:12:14.897Z,48.09
2023-03-26T17:14:55.278Z,48.27
2023-03-26T17:17:31.573Z,48.32
2023-03-26T17:20:19.323Z,48.29
2023-03-26T17:22:56.968Z,48.52
2023-03-26T17:25:53.944Z,48.87
2023-03-26T17:28:30.031Z,49.19
2023-03-26T17:31:06.724Z,49.38
2023-03-26T17:33:42.094Z,49.61
2023-03-26T17:36:13.267Z,49.58
2023-03-26T17:38:45.481Z,50.02
2023-03-26T17:41:35.228Z,50.30
2023-03-26T17:44:49.104Z,50.34
2023-03-26T17:47:26.486Z,50.44
2023-03-26T17:50:07.224Z,50.51
2023-03-26T17:52:48.268Z,50.63
2023-03-26T17:55:20.380Z,50.66
2023-03-26T17:57:53.375Z,50.71
2023-03-26T18:00:25.256Z,50.99
2023-03-26T18:02:58.185Z,50.97
2023-03-26T18:05:29.468Z,51.15
2023-03-26T18:08:17.889Z,51.41
2023-03-26T18:11:10.000Z,51.51
2023-03-26T18:13:44.695Z,51.94
2023-03-26T18:16:18.217Z,51.99
2023-03-26T18:19:06.898Z,52.04
2023-03-26T18:21:38.254Z,51.91
2023-03-26T18:24:18.257Z,51.94
2023-03-26T18:26:55.131Z,52.06
2023-03-26T18:29:26.280Z,51.93
2023-03-26T18:32:01.038Z,51.80
2023-03-26T18:34:32.713Z,51.39
2023-03-26T18:37:14.897Z,51.12
2023-03-26T18:40:23.605Z,50.99
2023-03-26T18:42:56.004Z,50.76
2023-03-26T18:45:34.111Z,50.93
2023-03-26T18:48:06.677Z,50.90
2023-03-26T18:50:39.950Z,50.78
2023-03-26T18:53:24.870Z,50.67
2023-03-26T18:55:53.088Z,50.73
2023-03-26T18:58:25.263Z,50.95
2023-03-26T19:00:58.744Z,51.12
2023-03-26T19:03:32.229Z,51.16
2023-03-26T19:06:02.577Z,51.28
2023-03-26T19:08:35.134Z,51.53
2023-03-26T19:11:04.988Z,51.56
2023-03-26T19:13:38.457Z,51.75
2023-03-26T19:16:18.328Z,51.88
2023-03-26T19:18:47.457Z,52.18
2023-03-26T19:21:18.079Z,52.21
2023-03-26T19:23:47.560Z,52.38
2023-03-26T19:26:16.895Z,52.42
2023-03-26T19:28:56.239Z,52.56
2023-03-26T19:31:38.150Z,52.68
2023-03-26T19:34:40.672Z,52.67
2023-03-26T19:37:33.661Z,52.99
2023-03-26T19:40:30.013Z,52.90
2023-03-26T19:43:05.536Z,52.71
2023-03-26T19:45:35.015Z,52.61
2023-03-26T19:48:14.908Z,52.75
2023-03-26T19:50:55.267Z,52.68
2023-03-26T19:53:33.263Z,52.71
2023-03-26T19:56:19.729Z,52.67
2023-03-26T19:58:50.591Z,52.86
2023-03-26T20:01:27.502Z,53.29
2023-03-26T20:04:06.437Z,53.63
2023-03-26T20:06:43.164Z,53.83
2023-03-26T20:09:13.672Z,53.61
2023-03-26T20:11:43.492Z,53.36
2023-03-26T20:14:44.712Z,53.28
2023-03-26T20:17:23.940Z,53.23
2023-03-26T20:20:21.285Z,53.43
2023-03-26T20:22:54.010Z,53.78
2023-03-26T20:25:34.505Z,53.94
2023-03-26T20:28:03.329Z,54.13
2023-03-26T20:30:38.107Z,54.32
2023-03-26T20:33:26.012Z,54.55
2023-03-26T20:35:56.837Z,54.80
2023-03-26T20:38:39.074Z,55.01
2023-03-26T20:41:14.917Z,55.32
2023-03-26T20:43:42.977Z,55.38
2023-03-26T20:46:18.769Z,55.59
2023-03-26T20:48:47.539Z,55.89
2023-03-26T20:51:16.906Z,56.38
2023-03-26T20:53:46.686Z,57.22
2023-03-26T20:56:19.954Z,58.09
2023-03-26T21:01:29.391Z,57.34
2023-03-26T21:03:57.529Z,57.10
2023-03-26T21:06:26.345Z,56.76
2023-03-26T21:09:01.010Z,56.67
2023-03-26T21:11:44.857Z,56.68
2023-03-26T21:14:42.113Z,56.58
2023-03-26T21:17:18.991Z,56.57
2023-03-26T21:19:49.015Z,56.63
2023-03-26T21:22:35.214Z,56.71
2023-03-26T21:25:15.413Z,56.67
2023-03-26T21:28:28.933Z,56.78
2023-03-26T21:31:06.094Z,57.05
2023-03-26T21:33:34.603Z,57.24
2023-03-26T21:36:04.630Z,57.37
2023-03-26T21:38:34.538Z,57.27
2023-03-26T21:43:32.048Z,57.07
2023-03-26T21:46:01.263Z,56.86
2023-03-26T21:48:29.792Z,56.66
2023-03-26T21:51:02.509Z,56.50
2023-03-26T21:53:31.516Z,56.45
2023-03-26T21:56:27.447Z,56.30
2023-03-26T21:59:16.000Z,56.22
2023-03-26T22:02:02.958Z,56.15
2023-03-26T22:04:53.126Z,56.06
2023-03-26T22:07:44.608Z,55.91
2023-03-26T22:10:13.684Z,55.74
2023-03-26T22:12:42.293Z,55.68
2023-03-26T22:15:14.089Z,55.79
2023-03-26T22:18:03.783Z,55.87
2023-03-26T22:20:32.568Z,55.86
2023-03-26T22:23:02.094Z,55.64
2023-03-26T22:25:31.136Z,55.62
2023-03-26T22:27:59.617Z,55.58
2023-03-26T22:30:28.148Z,55.50
2023-03-26T22:32:57.050Z,55.47
2023-03-26T22:35:26.734Z,55.42
2023-03-26T22:38:00.731Z,55.51
2023-03-26T22:40:29.684Z,55.56
2023-03-26T22:42:58.043Z,55.56
2023-03-26T22:45:27.900Z,55.59
2023-03-26T22:48:03.795Z,55.61
2023-03-26T22:50:33.559Z,55.67
2023-03-26T22:53:01.869Z,56.10
2023-03-26T22:55:30.299Z,56.99
2023-03-26T22:57:58.677Z,57.31
2023-03-26T23:00:27.176Z,57.39
2023-03-26T23:03:00.848Z,57.56
2023-03-26T23:05:29.590Z,57.72
2023-03-26T23:07:58.451Z,57.89
2023-03-26T23:10:30.133Z,58.52
2023-03-26T23:12:58.599Z,58.52
2023-03-26T23:15:26.791Z,58.24
2023-03-26T23:17:55.363Z,58.08
2023-03-26T23:20:23.813Z,58.46
2023-03-26T23:22:52.685Z,58.57
2023-03-26T23:25:21.304Z,58.56
2023-03-26T23:27:50.805Z,58.35
2023-03-26T23:30:19.464Z,58.26
2023-03-26T23:32:48.049Z,58.21
2023-03-26T23:35:16.474Z,57.97
2023-03-26T23:37:44.918Z,58.14
2023-03-26T23:40:14.150Z,58.28
2023-03-26T23:42:42.839Z,58.25
2023-03-26T23:45:13.134Z,58.28
2023-03-26T23:47:42.583Z,58.23
2023-03-26T23:50:11.537Z,58.59
2023-03-26T23:52:39.911Z,58.64
2023-03-26T23:55:09.763Z,58.56
2023-03-26T23:57:38.364Z,58.52
